Time;durP1;ratioP1;P1;durP2;ratioP2;P2;SDS_P1;SDS_P2;PMS_P1;PMS_P2;Temp;Humidity;BMP_temperature;BMP_pressure;BME280_temperature;BME280_humidity;BME280_pressure;Samples;Min_cycle;Max_cycle;Signal;HPM_P1;HPM_P2
2022/01/05 00:00:21;;;;;;;25.55;18.48;;;;;;;;;;5113921;28;20127;-74
2022/01/05 00:02:48;;;;;;;25.25;17.35;;;;;;;;;;5105695;28;20481;-75
2022/01/05 00:05:15;;;;;;;29.20;18.98;;;;;;;;;;5101638;28;20040;-75
2022/01/05 00:07:42;;;;;;;33.80;19.58;;;;;;;;;;5134595;27;20050;-74
2022/01/05 00:10:10;;;;;;;28.33;17.88;;;;;;;;;;5135355;27;20043;-74
2022/01/05 00:12:37;;;;;;;30.67;18.75;;;;;;;;;;5101142;28;20409;-74
2022/01/05 00:15:05;;;;;;;30.38;19.98;;;;;;;;;;5096977;28;20074;-74
2022/01/05 00:17:32;;;;;;;30.00;18.35;;;;;;;;;;5115371;28;20071;-75
2022/01/05 00:19:59;;;;;;;36.20;19.88;;;;;;;;;;5081573;27;20104;-74
2022/01/05 00:22:26;;;;;;;34.40;22.65;;;;;;;;;;5107806;28;20077;-74
2022/01/05 00:24:53;;;;;;;31.98;21.58;;;;;;;;;;5132674;27;20057;-74
2022/01/05 00:27:20;;;;;;;33.67;19.17;;;;;;;;;;5100077;27;20112;-74
2022/01/05 00:29:48;;;;;;;34.90;20.95;;;;;;;;;;5116987;27;20061;-74
2022/01/05 00:32:15;;;;;;;33.83;21.67;;;;;;;;;;5117435;27;20092;-74
2022/01/05 00:34:42;;;;;;;31.35;20.60;;;;;;;;;;5135393;27;20465;-74
2022/01/05 00:37:09;;;;;;;35.85;19.90;;;;;;;;;;5135464;27;20039;-74
2022/01/05 00:39:36;;;;;;;31.20;18.85;;;;;;;;;;5117228;27;20108;-75
2022/01/05 00:42:05;;;;;;;42.85;21.67;;;;;;;;;;5135328;27;20404;-75
2022/01/05 00:44:32;;;;;;;68.32;21.02;;;;;;;;;;5117035;27;20035;-74
2022/01/05 00:46:59;;;;;;;41.80;18.88;;;;;;;;;;5134890;27;20432;-74
2022/01/05 00:49:26;;;;;;;48.25;19.73;;;;;;;;;;5116745;27;20489;-74
2022/01/05 00:51:53;;;;;;;110.75;23.50;;;;;;;;;;5116823;27;20051;-73
2022/01/05 00:54:20;;;;;;;53.72;20.63;;;;;;;;;;5127692;27;20044;-74
2022/01/05 00:56:47;;;;;;;26.98;19.23;;;;;;;;;;5098069;27;20138;-74
2022/01/05 00:59:14;;;;;;;35.15;18.83;;;;;;;;;;5059737;28;20052;-74
2022/01/05 01:01:41;;;;;;;32.22;18.65;;;;;;;;;;5090777;28;20162;-74
2022/01/05 01:04:09;;;;;;;22.52;16.70;;;;;;;;;;5099050;27;20050;-75
2022/01/05 01:06:36;;;;;;;45.17;18.30;;;;;;;;;;5133794;27;20043;-74
2022/01/05 01:09:03;;;;;;;48.38;17.58;;;;;;;;;;5074420;28;20040;-74
2022/01/05 01:11:30;;;;;;;28.17;17.00;;;;;;;;;;5107552;27;20058;-74
2022/01/05 01:13:57;;;;;;;64.88;17.88;;;;;;;;;;5095095;28;20044;-75
2022/01/05 01:16:24;;;;;;;43.42;18.23;;;;;;;;;;5083529;27;20100;-74
2022/01/05 01:18:51;;;;;;;30.02;17.27;;;;;;;;;;5099003;27;20126;-75
2022/01/05 01:21:18;;;;;;;37.47;20.70;;;;;;;;;;5134513;27;20047;-77
2022/01/05 01:23:55;;;;;;;23.85;17.23;;;;;;;;;;5134571;27;20035;-74
2022/01/05 01:26:30;;;;;;;28.33;14.48;;;;;;;;;;5111218;27;20043;-74
2022/01/05 01:28:57;;;;;;;52.60;19.13;;;;;;;;;;5086616;27;20118;-75
2022/01/05 01:31:25;;;;;;;31.92;17.83;;;;;;;;;;5090068;27;20048;-74
2022/01/05 01:33:53;;;;;;;25.85;17.85;;;;;;;;;;5121368;27;20043;-74
2022/01/05 01:36:20;;;;;;;30.55;18.42;;;;;;;;;;5133436;27;20079;-74
2022/01/05 01:38:47;;;;;;;31.00;16.05;;;;;;;;;;5109108;27;20044;-74
2022/01/05 01:41:14;;;;;;;21.38;15.70;;;;;;;;;;5109413;27;20488;-73
2022/01/05 01:43:41;;;;;;;23.00;17.27;;;;;;;;;;5133817;27;20039;-74
2022/01/05 01:46:08;;;;;;;21.77;16.63;;;;;;;;;;5099057;27;20058;-74
2022/01/05 01:48:36;;;;;;;23.67;16.40;;;;;;;;;;5101989;27;20047;-74
2022/01/05 01:51:03;;;;;;;25.40;18.35;;;;;;;;;;5114480;28;20040;-74
2022/01/05 01:53:30;;;;;;;24.70;19.90;;;;;;;;;;5103269;27;20089;-74
2022/01/05 01:55:59;;;;;;;26.25;18.92;;;;;;;;;;5133613;27;20042;-74
2022/01/05 01:58:26;;;;;;;26.52;19.20;;;;;;;;;;5099229;27;20096;-74
2022/01/05 02:00:54;;;;;;;27.85;20.55;;;;;;;;;;5115173;27;20047;-74
2022/01/05 02:03:21;;;;;;;25.17;20.48;;;;;;;;;;5115250;27;20047;-76
2022/01/05 02:05:48;;;;;;;27.58;21.02;;;;;;;;;;5133462;27;20100;-74
2022/01/05 02:08:16;;;;;;;28.05;21.63;;;;;;;;;;5133861;27;20070;-74
2022/01/05 02:10:43;;;;;;;28.98;20.15;;;;;;;;;;5115644;27;20075;-74
2022/01/05 02:13:11;;;;;;;25.33;19.10;;;;;;;;;;5087952;28;20135;-74
2022/01/05 02:15:41;;;;;;;28.48;20.88;;;;;;;;;;5112818;28;20051;-74
2022/01/05 02:18:58;;;;;;;26.30;19.38;;;;;;;;;;5094889;28;20051;-73
2022/01/05 02:21:09;;;;;;;26.73;19.10;;;;;;;;;;5112972;27;20047;-73
2022/01/05 02:23:37;;;;;;;26.98;18.38;;;;;;;;;;5094370;28;20383;-73
2022/01/05 02:26:05;;;;;;;26.73;18.98;;;;;;;;;;5094863;28;20063;-73
2022/01/05 02:28:32;;;;;;;26.55;19.55;;;;;;;;;;5078389;28;20062;-74
2022/01/05 02:30:59;;;;;;;25.45;17.50;;;;;;;;;;5094127;28;20043;-74
2022/01/05 02:33:26;;;;;;;33.85;18.25;;;;;;;;;;5095217;28;20047;-73
2022/01/05 02:35:53;;;;;;;23.58;15.93;;;;;;;;;;5131247;27;20104;-74
2022/01/05 02:38:22;;;;;;;24.25;17.45;;;;;;;;;;5107117;28;20051;-74
2022/01/05 02:40:50;;;;;;;25.35;16.60;;;;;;;;;;5094671;28;20125;-74
2022/01/05 02:43:17;;;;;;;25.90;17.83;;;;;;;;;;5112406;28;20467;-73
2022/01/05 02:45:44;;;;;;;25.83;16.25;;;;;;;;;;5094370;28;20443;-74
2022/01/05 02:48:12;;;;;;;28.95;18.85;;;;;;;;;;5112370;28;20414;-73
2022/01/05 02:50:39;;;;;;;36.03;21.48;;;;;;;;;;5077887;28;20051;-74
2022/01/05 02:53:06;;;;;;;31.95;20.77;;;;;;;;;;5111669;27;20494;-74
2022/01/05 02:55:33;;;;;;;25.85;17.85;;;;;;;;;;5094685;27;20163;-74
2022/01/05 02:58:00;;;;;;;27.42;18.65;;;;;;;;;;5094336;28;20046;-74
2022/01/05 03:00:27;;;;;;;28.25;17.27;;;;;;;;;;5077659;28;20126;-74
2022/01/05 03:02:54;;;;;;;27.27;20.00;;;;;;;;;;5094428;28;20052;-74
2022/01/05 03:05:22;;;;;;;22.17;15.60;;;;;;;;;;5112066;28;20055;-74
2022/01/05 03:07:48;;;;;;;22.52;16.83;;;;;;;;;;5094487;28;20066;-74
2022/01/05 03:10:15;;;;;;;22.60;16.63;;;;;;;;;;5111798;28;20395;-74
2022/01/05 03:12:44;;;;;;;19.95;14.57;;;;;;;;;;5112570;28;20051;-74
2022/01/05 03:15:12;;;;;;;21.67;14.70;;;;;;;;;;5093560;28;20047;-74
2022/01/05 03:17:40;;;;;;;20.98;15.18;;;;;;;;;;5094452;28;20036;-74
2022/01/05 03:20:07;;;;;;;21.23;16.38;;;;;;;;;;5094054;28;20493;-75
2022/01/05 03:22:35;;;;;;;23.33;16.60;;;;;;;;;;5111770;28;20043;-74
2022/01/05 03:25:03;;;;;;;19.95;15.43;;;;;;;;;;5111986;28;20048;-74
2022/01/05 03:27:30;;;;;;;23.33;16.00;;;;;;;;;;5111956;28;20044;-74
2022/01/05 03:29:57;;;;;;;20.67;14.63;;;;;;;;;;5112161;28;20143;-74
2022/01/05 03:32:27;;;;;;;22.25;15.48;;;;;;;;;;5123054;28;20557;-74
2022/01/05 03:34:54;;;;;;;21.98;16.30;;;;;;;;;;5111804;28;20051;-74
2022/01/05 03:37:21;;;;;;;19.13;14.85;;;;;;;;;;5112119;28;20171;-76
2022/01/05 03:39:48;;;;;;;20.52;16.20;;;;;;;;;;5093359;28;20054;-74
2022/01/05 03:42:15;;;;;;;22.70;15.52;;;;;;;;;;5095826;28;20556;-76
2022/01/05 03:44:42;;;;;;;22.63;16.23;;;;;;;;;;5097511;28;20055;-74
2022/01/05 03:47:09;;;;;;;20.33;13.30;;;;;;;;;;5061003;28;20059;-74
2022/01/05 03:49:36;;;;;;;25.40;15.65;;;;;;;;;;5099300;28;20482;-74
2022/01/05 03:52:04;;;;;;;19.70;14.52;;;;;;;;;;5126230;27;20043;-74
2022/01/05 03:54:31;;;;;;;23.23;14.07;;;;;;;;;;5117769;27;20092;-74
2022/01/05 03:56:58;;;;;;;18.52;14.00;;;;;;;;;;5100890;27;20043;-74
2022/01/05 03:59:25;;;;;;;19.02;14.02;;;;;;;;;;5136109;27;20047;-73
2022/01/05 04:01:52;;;;;;;21.33;13.02;;;;;;;;;;5135479;27;20051;-74
2022/01/05 04:04:19;;;;;;;24.80;14.68;;;;;;;;;;5101086;27;20062;-74
2022/01/05 04:06:46;;;;;;;20.80;15.48;;;;;;;;;;5116559;27;20130;-74
2022/01/05 04:09:13;;;;;;;23.85;17.05;;;;;;;;;;5094834;27;20217;-76
2022/01/05 04:11:40;;;;;;;24.00;14.32;;;;;;;;;;5100947;27;20178;-75
2022/01/05 04:14:08;;;;;;;24.70;13.65;;;;;;;;;;5100445;27;20476;-75
2022/01/05 04:16:35;;;;;;;20.63;13.55;;;;;;;;;;5099916;28;20040;-75
2022/01/05 04:19:02;;;;;;;18.20;12.48;;;;;;;;;;5114880;27;20097;-74
2022/01/05 04:21:29;;;;;;;22.08;13.82;;;;;;;;;;5115386;27;20048;-74
2022/01/05 04:23:56;;;;;;;35.28;17.58;;;;;;;;;;5115449;28;20044;-75
2022/01/05 04:26:23;;;;;;;20.42;14.63;;;;;;;;;;5115200;28;20090;-74
2022/01/05 04:28:50;;;;;;;52.50;35.70;;;;;;;;;;5115049;28;20075;-74
2022/01/05 04:31:17;;;;;;;22.95;16.33;;;;;;;;;;5096953;28;20045;-74
2022/01/05 04:33:44;;;;;;;20.88;15.68;;;;;;;;;;5115397;28;20047;-74
2022/01/05 04:36:31;;;;;;;23.52;14.75;;;;;;;;;;5099280;28;20039;-74
2022/01/05 04:38:58;;;;;;;32.10;15.60;;;;;;;;;;5105091;28;20044;-73
2022/01/05 04:41:25;;;;;;;33.30;18.05;;;;;;;;;;5099949;28;20052;-77
2022/01/05 04:43:52;;;;;;;37.78;15.98;;;;;;;;;;5104118;27;20047;-74
2022/01/05 04:46:19;;;;;;;21.77;15.98;;;;;;;;;;5081435;28;20057;-74
2022/01/05 04:48:46;;;;;;;23.90;14.88;;;;;;;;;;5109378;28;20051;-74
2022/01/05 04:51:13;;;;;;;23.38;15.23;;;;;;;;;;5113613;27;20082;-75
2022/01/05 04:53:40;;;;;;;24.30;15.27;;;;;;;;;;5096921;28;20051;-74
2022/01/05 04:56:07;;;;;;;22.92;16.30;;;;;;;;;;5080053;28;20080;-74
2022/01/05 04:58:34;;;;;;;17.38;12.95;;;;;;;;;;5097053;28;20082;-74
2022/01/05 05:01:01;;;;;;;56.13;17.00;;;;;;;;;;5115056;27;20048;-74
2022/01/05 05:03:28;;;;;;;49.65;17.90;;;;;;;;;;5101824;27;20047;-74
2022/01/05 05:05:55;;;;;;;34.88;15.38;;;;;;;;;;5109340;27;20075;-74
2022/01/05 05:08:22;;;;;;;54.78;17.10;;;;;;;;;;5116601;27;20055;-74
2022/01/05 05:10:49;;;;;;;21.90;16.20;;;;;;;;;;5134732;27;20070;-74
2022/01/05 05:13:16;;;;;;;41.70;18.40;;;;;;;;;;5116585;27;20051;-74
2022/01/05 05:15:43;;;;;;;18.60;13.50;;;;;;;;;;5134814;27;20043;-74
2022/01/05 05:18:10;;;;;;;41.88;16.95;;;;;;;;;;5115874;27;20130;-73
2022/01/05 05:20:37;;;;;;;31.90;17.42;;;;;;;;;;5116073;27;20054;-74
2022/01/05 05:23:04;;;;;;;34.97;17.70;;;;;;;;;;5111144;28;20120;-74
2022/01/05 05:25:31;;;;;;;38.15;16.15;;;;;;;;;;5108333;27;20053;-74
2022/01/05 05:27:58;;;;;;;29.48;17.58;;;;;;;;;;5116259;27;20139;-74
2022/01/05 05:30:33;;;;;;;43.03;16.80;;;;;;;;;;5101450;27;20104;-73
2022/01/05 05:33:00;;;;;;;28.50;15.88;;;;;;;;;;5116159;27;20126;-73
2022/01/05 05:35:27;;;;;;;26.73;17.13;;;;;;;;;;5115294;27;20049;-74
2022/01/05 05:37:55;;;;;;;49.38;17.13;;;;;;;;;;5089413;28;20057;-74
2022/01/05 05:40:22;;;;;;;40.40;15.48;;;;;;;;;;5113938;27;20040;-73
2022/01/05 05:42:49;;;;;;;32.53;16.35;;;;;;;;;;5114065;28;20105;-73
2022/01/05 05:45:17;;;;;;;87.70;20.45;;;;;;;;;;5113899;28;20055;-73
2022/01/05 05:47:44;;;;;;;27.63;15.63;;;;;;;;;;5095059;28;20543;-74
2022/01/05 05:50:12;;;;;;;38.35;14.45;;;;;;;;;;5095588;28;20120;-74
2022/01/05 05:52:39;;;;;;;38.80;15.20;;;;;;;;;;5094985;28;20044;-74
2022/01/05 05:55:06;;;;;;;51.22;17.70;;;;;;;;;;5113320;27;20123;-73
2022/01/05 05:57:42;;;;;;;45.08;17.27;;;;;;;;;;5103103;28;20039;-74
2022/01/05 06:00:10;;;;;;;100.78;18.65;;;;;;;;;;5095565;28;20402;-74
2022/01/05 06:02:38;;;;;;;44.88;17.33;;;;;;;;;;5095636;28;20440;-73
2022/01/05 06:05:05;;;;;;;25.20;16.23;;;;;;;;;;5093898;28;20502;-74
2022/01/05 06:07:32;;;;;;;29.27;14.45;;;;;;;;;;5094971;28;20043;-74
2022/01/05 06:09:59;;;;;;;57.90;16.90;;;;;;;;;;5112795;28;20409;-73
2022/01/05 06:12:27;;;;;;;79.55;19.88;;;;;;;;;;5114361;27;20067;-74
2022/01/05 06:14:54;;;;;;;32.22;14.10;;;;;;;;;;5095298;28;20132;-74
2022/01/05 06:17:21;;;;;;;18.65;15.00;;;;;;;;;;5113157;27;20394;-74
2022/01/05 06:19:48;;;;;;;57.13;17.42;;;;;;;;;;5094790;28;20059;-74
2022/01/05 06:22:17;;;;;;;40.33;14.98;;;;;;;;;;5094357;28;20047;-74
2022/01/05 06:24:48;;;;;;;46.33;15.80;;;;;;;;;;5113139;28;20050;-74
2022/01/05 06:27:15;;;;;;;29.35;14.60;;;;;;;;;;5078121;28;20043;-72
2022/01/05 06:29:43;;;;;;;46.90;15.75;;;;;;;;;;5095022;28;20051;-73
2022/01/05 06:32:10;;;;;;;24.85;14.98;;;;;;;;;;5077822;28;20481;-75
2022/01/05 06:34:37;;;;;;;38.95;16.38;;;;;;;;;;5098657;27;20092;-74
2022/01/05 06:37:05;;;;;;;26.55;16.10;;;;;;;;;;5098345;28;20487;-74
2022/01/05 06:39:32;;;;;;;26.13;13.23;;;;;;;;;;5077069;28;20054;-75
2022/01/05 06:41:58;;;;;;;28.42;13.60;;;;;;;;;;5112360;27;20046;-74
2022/01/05 06:44:25;;;;;;;34.10;15.73;;;;;;;;;;5112488;27;20062;-74
2022/01/05 06:46:53;;;;;;;50.75;15.82;;;;;;;;;;5112834;27;20448;-73
2022/01/05 06:49:23;;;;;;;25.33;14.80;;;;;;;;;;5096997;28;20489;-73
2022/01/05 06:51:51;;;;;;;103.93;23.00;;;;;;;;;;5089771;27;20107;-74
2022/01/05 06:54:18;;;;;;;71.95;18.65;;;;;;;;;;5093698;27;20046;-83
2022/01/05 06:56:46;;;;;;;29.98;14.38;;;;;;;;;;5131468;27;20050;-76
2022/01/05 06:59:14;;;;;;;74.10;16.85;;;;;;;;;;5116496;27;20494;-84
2022/01/05 07:01:42;;;;;;;38.33;15.40;;;;;;;;;;5090724;28;20073;-75
2022/01/05 07:04:09;;;;;;;39.67;14.63;;;;;;;;;;5124873;27;20055;-77
2022/01/05 07:06:36;;;;;;;19.48;14.80;;;;;;;;;;5131015;27;20135;-75
2022/01/05 07:09:03;;;;;;;37.50;15.70;;;;;;;;;;5096590;28;20063;-75
2022/01/05 07:11:31;;;;;;;20.92;13.60;;;;;;;;;;5131434;27;20387;-75
2022/01/05 07:13:59;;;;;;;19.08;12.63;;;;;;;;;;5079662;28;20114;-78
2022/01/05 07:16:26;;;;;;;23.38;14.10;;;;;;;;;;5085502;28;20055;-76
2022/01/05 07:18:53;;;;;;;31.13;14.27;;;;;;;;;;5111714;28;20437;-76
2022/01/05 07:21:20;;;;;;;38.80;14.90;;;;;;;;;;5110527;28;20496;-76
2022/01/05 07:23:47;;;;;;;34.15;13.23;;;;;;;;;;5068902;28;20122;-75
2022/01/05 07:26:14;;;;;;;33.05;15.82;;;;;;;;;;5093571;28;20425;-75
2022/01/05 07:28:41;;;;;;;22.95;15.65;;;;;;;;;;5111400;28;20054;-76
2022/01/05 07:31:08;;;;;;;24.92;15.88;;;;;;;;;;5111382;28;20585;-76
2022/01/05 07:33:36;;;;;;;34.15;17.25;;;;;;;;;;5111609;28;20044;-72
2022/01/05 07:36:03;;;;;;;20.05;14.55;;;;;;;;;;5111614;28;20581;-71
2022/01/05 07:38:32;;;;;;;38.22;16.05;;;;;;;;;;5111532;28;20104;-71
2022/01/05 07:40:59;;;;;;;45.70;16.05;;;;;;;;;;5112178;28;20108;-75
2022/01/05 07:43:26;;;;;;;27.80;16.00;;;;;;;;;;5075965;28;20073;-77
2022/01/05 07:45:54;;;;;;;16.70;13.90;;;;;;;;;;5077112;28;20071;-76
2022/01/05 07:48:21;;;;;;;19.77;14.32;;;;;;;;;;5111207;28;20553;-81
2022/01/05 07:50:48;;;;;;;22.70;16.52;;;;;;;;;;5119883;28;20048;-77
2022/01/05 07:53:15;;;;;;;28.83;14.05;;;;;;;;;;5096055;28;20054;-76
2022/01/05 07:55:42;;;;;;;20.63;13.25;;;;;;;;;;5130926;28;20464;-75
2022/01/05 07:58:10;;;;;;;14.93;12.48;;;;;;;;;;5113618;28;20400;-76
2022/01/05 08:00:37;;;;;;;18.85;14.02;;;;;;;;;;5130378;28;20039;-76
2022/01/05 08:03:04;;;;;;;21.23;14.75;;;;;;;;;;5093036;28;20043;-77
2022/01/05 08:05:32;;;;;;;20.80;15.02;;;;;;;;;;5101915;28;20502;-75
2022/01/05 08:07:59;;;;;;;21.85;15.20;;;;;;;;;;5113235;28;20062;-77
2022/01/05 08:10:26;;;;;;;20.73;15.00;;;;;;;;;;5112586;28;20047;-76
2022/01/05 08:12:53;;;;;;;18.45;14.88;;;;;;;;;;5110294;28;20072;-77
2022/01/05 08:15:20;;;;;;;17.48;13.98;;;;;;;;;;5085964;28;20051;-80
2022/01/05 08:17:47;;;;;;;22.60;16.48;;;;;;;;;;5080522;28;20402;-74
2022/01/05 08:20:14;;;;;;;21.75;16.77;;;;;;;;;;5108797;28;20054;-76
2022/01/05 08:22:43;;;;;;;26.10;18.70;;;;;;;;;;5093821;28;20101;-75
2022/01/05 08:25:17;;;;;;;26.25;19.27;;;;;;;;;;5113122;28;20055;-76
2022/01/05 08:27:47;;;;;;;17.85;14.40;;;;;;;;;;5103116;28;20405;-75
2022/01/05 08:30:19;;;;;;;24.73;16.98;;;;;;;;;;5081270;28;20083;-75
2022/01/05 08:32:47;;;;;;;25.73;17.98;;;;;;;;;;5097270;28;20131;-77
2022/01/05 08:35:16;;;;;;;20.80;15.93;;;;;;;;;;5097151;28;20055;-76
2022/01/05 08:37:44;;;;;;;17.33;13.85;;;;;;;;;;5074515;28;20054;-74
2022/01/05 08:40:15;;;;;;;19.35;15.50;;;;;;;;;;5091844;27;20051;-77
2022/01/05 08:42:43;;;;;;;19.77;13.77;;;;;;;;;;5114866;27;20501;-76
2022/01/05 08:45:11;;;;;;;20.42;15.40;;;;;;;;;;5134282;27;20067;-75
2022/01/05 08:47:38;;;;;;;19.58;15.98;;;;;;;;;;5110325;27;20051;-75
2022/01/05 08:50:06;;;;;;;20.08;15.02;;;;;;;;;;5099620;27;20057;-76
2022/01/05 08:52:33;;;;;;;19.75;15.70;;;;;;;;;;5112701;27;20051;-72
2022/01/05 08:55:00;;;;;;;20.98;16.52;;;;;;;;;;5082963;27;20072;-76
2022/01/05 08:57:27;;;;;;;23.13;18.77;;;;;;;;;;5101706;27;20532;-75
2022/01/05 08:59:54;;;;;;;27.20;19.42;;;;;;;;;;5107538;28;20051;-75
2022/01/05 09:02:21;;;;;;;21.63;17.63;;;;;;;;;;5080310;27;20127;-75
2022/01/05 09:04:51;;;;;;;24.27;21.17;;;;;;;;;;5097351;27;20055;-75
2022/01/05 09:07:19;;;;;;;27.23;21.52;;;;;;;;;;5119154;27;20048;-76
2022/01/05 09:09:49;;;;;;;28.90;20.55;;;;;;;;;;5097037;27;20600;-75
2022/01/05 09:12:16;;;;;;;31.10;22.08;;;;;;;;;;5096420;28;20127;-75
2022/01/05 09:14:43;;;;;;;30.75;23.75;;;;;;;;;;5110065;27;20054;-75
2022/01/05 09:17:10;;;;;;;26.63;21.85;;;;;;;;;;5133750;27;20042;-75
2022/01/05 09:19:37;;;;;;;28.05;22.80;;;;;;;;;;5133707;27;20055;-74
2022/01/05 09:22:05;;;;;;;37.28;22.17;;;;;;;;;;5095829;28;20055;-75
2022/01/05 09:24:48;;;;;;;30.52;20.83;;;;;;;;;;5083215;28;20109;-75
2022/01/05 09:27:16;;;;;;;45.25;22.20;;;;;;;;;;5095100;28;20075;-75
2022/01/05 09:29:44;;;;;;;26.08;19.90;;;;;;;;;;5087551;28;20154;-76
2022/01/05 09:32:11;;;;;;;29.40;21.95;;;;;;;;;;5075700;28;20105;-73
2022/01/05 09:34:40;;;;;;;29.15;20.25;;;;;;;;;;5092488;28;20131;-75
2022/01/05 09:37:27;;;;;;;31.25;21.17;;;;;;;;;;5093456;28;20054;-78
2022/01/05 09:42:40;;;;;;;26.80;20.27;;;;;;;;;;5095173;28;20044;-75
2022/01/05 09:45:22;;;;;;;27.88;19.45;;;;;;;;;;5075389;28;20139;-77
2022/01/05 09:48:10;;;;;;;33.63;19.23;;;;;;;;;;5091374;28;20478;-74
2022/01/05 09:50:42;;;;;;;29.67;20.85;;;;;;;;;;5104287;28;20054;-72
2022/01/05 09:53:10;;;;;;;31.75;20.27;;;;;;;;;;5094465;28;20178;-73
2022/01/05 09:55:38;;;;;;;27.85;19.42;;;;;;;;;;5112546;28;20513;-72
2022/01/05 09:58:05;;;;;;;32.17;20.33;;;;;;;;;;5092208;28;20049;-74
2022/01/05 10:00:32;;;;;;;29.35;21.13;;;;;;;;;;5087615;28;20052;-73
2022/01/05 10:03:00;;;;;;;27.30;20.17;;;;;;;;;;5092508;28;20562;-72
2022/01/05 10:05:28;;;;;;;31.25;22.05;;;;;;;;;;5091750;28;20055;-73
2022/01/05 10:07:55;;;;;;;34.30;22.77;;;;;;;;;;5075987;28;20047;-72
2022/01/05 10:10:22;;;;;;;30.90;22.73;;;;;;;;;;5110492;28;20044;-73
2022/01/05 10:12:50;;;;;;;27.70;21.45;;;;;;;;;;5090213;28;20552;-71
2022/01/05 10:15:17;;;;;;;33.08;23.00;;;;;;;;;;5090596;28;20052;-71
2022/01/05 10:17:44;;;;;;;31.52;23.15;;;;;;;;;;5094063;28;20078;-71
2022/01/05 10:20:13;;;;;;;31.13;21.67;;;;;;;;;;5093679;28;20043;-71
2022/01/05 10:22:45;;;;;;;28.83;20.88;;;;;;;;;;5093687;28;20075;-71
2022/01/05 10:25:20;;;;;;;32.60;23.95;;;;;;;;;;5093748;28;20046;-73
2022/01/05 10:28:01;;;;;;;32.92;24.48;;;;;;;;;;5076719;28;20048;-75
2022/01/05 10:30:43;;;;;;;27.92;20.88;;;;;;;;;;5077223;27;20047;-73
2022/01/05 10:33:11;;;;;;;28.67;21.42;;;;;;;;;;5083356;28;20063;-73
2022/01/05 10:35:38;;;;;;;26.17;20.20;;;;;;;;;;5084983;28;20156;-72
2022/01/05 10:38:12;;;;;;;29.63;20.92;;;;;;;;;;5063916;28;20047;-74
2022/01/05 10:40:40;;;;;;;30.70;21.38;;;;;;;;;;5073090;28;20396;-72
2022/01/05 10:43:09;;;;;;;31.15;22.05;;;;;;;;;;5091777;28;20447;-72
2022/01/05 10:45:53;;;;;;;30.95;21.73;;;;;;;;;;5075063;28;20092;-73
2022/01/05 10:48:24;;;;;;;35.45;24.98;;;;;;;;;;5116931;27;20408;-71
2022/01/05 10:51:06;;;;;;;32.15;23.15;;;;;;;;;;5111753;27;20409;-71
2022/01/05 10:53:33;;;;;;;31.23;24.85;;;;;;;;;;5058097;28;20069;-71
2022/01/05 10:56:00;;;;;;;29.88;23.80;;;;;;;;;;5090542;28;20047;-72
2022/01/05 10:58:43;;;;;;;36.13;25.38;;;;;;;;;;5092973;28;20063;-71
2022/01/05 11:01:29;;;;;;;34.08;23.60;;;;;;;;;;5078578;27;20585;-71
2022/01/05 11:03:57;;;;;;;38.80;27.48;;;;;;;;;;5093384;28;20040;-74
2022/01/05 11:06:24;;;;;;;38.65;23.75;;;;;;;;;;5094340;28;20054;-71
2022/01/05 11:08:56;;;;;;;33.40;23.70;;;;;;;;;;5081281;28;20117;-71
2022/01/05 11:11:38;;;;;;;34.25;23.52;;;;;;;;;;5106049;28;20494;-71
2022/01/05 11:14:15;;;;;;;33.20;23.10;;;;;;;;;;5111644;28;20498;-75
2022/01/05 11:16:44;;;;;;;34.83;23.10;;;;;;;;;;5088070;28;20183;-71
2022/01/05 11:19:11;;;;;;;33.75;23.48;;;;;;;;;;5066965;28;20050;-72
2022/01/05 11:21:40;;;;;;;32.45;23.25;;;;;;;;;;5098395;27;20109;-70
2022/01/05 11:24:07;;;;;;;32.88;24.05;;;;;;;;;;5092688;28;20549;-72
2022/01/05 11:26:35;;;;;;;37.83;27.60;;;;;;;;;;5078774;28;20159;-73
2022/01/05 11:29:03;;;;;;;29.30;21.02;;;;;;;;;;5084160;28;20048;-72
2022/01/05 11:31:31;;;;;;;30.35;22.08;;;;;;;;;;5077859;28;20044;-72
2022/01/05 11:33:58;;;;;;;29.35;21.88;;;;;;;;;;5079721;28;20051;-73
2022/01/05 11:36:26;;;;;;;31.70;21.33;;;;;;;;;;5078760;28;20121;-73
2022/01/05 11:39:01;;;;;;;30.52;21.88;;;;;;;;;;5081393;28;20040;-72
2022/01/05 11:41:28;;;;;;;28.85;20.90;;;;;;;;;;5081358;28;20063;-71
2022/01/05 11:43:55;;;;;;;26.35;18.88;;;;;;;;;;5097086;28;20765;-72
2022/01/05 11:46:29;;;;;;;30.20;21.15;;;;;;;;;;5064835;28;20090;-75
2022/01/05 11:49:10;;;;;;;27.95;20.38;;;;;;;;;;5090019;28;20081;-74
2022/01/05 11:51:45;;;;;;;28.80;19.63;;;;;;;;;;5093696;28;20418;-72
2022/01/05 11:54:30;;;;;;;23.25;19.10;;;;;;;;;;5111155;28;20481;-72
2022/01/05 11:57:07;;;;;;;25.85;20.33;;;;;;;;;;5099756;28;20044;-73
2022/01/05 11:59:36;;;;;;;26.67;20.83;;;;;;;;;;5068760;28;20506;-73
2022/01/05 12:02:10;;;;;;;24.40;19.90;;;;;;;;;;5110405;28;20091;-69
2022/01/05 12:04:59;;;;;;;26.92;19.75;;;;;;;;;;5097020;28;20083;-68
2022/01/05 12:07:46;;;;;;;24.48;20.20;;;;;;;;;;5105339;27;20068;-69
2022/01/05 12:10:21;;;;;;;24.17;19.60;;;;;;;;;;5085888;28;20048;-70
2022/01/05 12:12:57;;;;;;;25.00;19.75;;;;;;;;;;5094132;28;20064;-70
2022/01/05 12:15:57;;;;;;;25.50;17.48;;;;;;;;;;5090597;27;20113;-70
2022/01/05 12:18:36;;;;;;;21.02;17.77;;;;;;;;;;5095224;28;20043;-70
2022/01/05 12:21:03;;;;;;;23.80;18.52;;;;;;;;;;5113029;27;20125;-69
2022/01/05 12:23:32;;;;;;;27.20;22.33;;;;;;;;;;5096199;28;20044;-70
2022/01/05 12:26:03;;;;;;;22.30;16.52;;;;;;;;;;5109425;27;20043;-70
2022/01/05 12:28:33;;;;;;;21.73;18.02;;;;;;;;;;5125404;27;20090;-71
2022/01/05 12:31:00;;;;;;;22.23;17.55;;;;;;;;;;5116349;27;20558;-70
2022/01/05 12:33:42;;;;;;;23.45;17.17;;;;;;;;;;5099094;27;20100;-75
2022/01/05 12:36:09;;;;;;;25.98;17.55;;;;;;;;;;5119143;27;20052;-73
2022/01/05 12:38:39;;;;;;;19.50;15.77;;;;;;;;;;5133801;27;20055;-75
2022/01/05 12:41:28;;;;;;;22.80;17.98;;;;;;;;;;5134407;27;20055;-75
2022/01/05 12:43:57;;;;;;;19.67;16.88;;;;;;;;;;5126884;27;20410;-73
2022/01/05 12:46:42;;;;;;;19.10;15.32;;;;;;;;;;5105515;27;20090;-74
2022/01/05 12:49:28;;;;;;;18.02;15.25;;;;;;;;;;5098467;27;20050;-75
2022/01/05 12:51:59;;;;;;;19.77;15.13;;;;;;;;;;5076831;28;20109;-77
2022/01/05 12:54:29;;;;;;;18.35;14.23;;;;;;;;;;5115047;27;20046;-75
2022/01/05 12:57:00;;;;;;;21.20;16.25;;;;;;;;;;5095868;28;20485;-75
2022/01/05 12:59:32;;;;;;;16.95;14.63;;;;;;;;;;5096741;28;20091;-74
2022/01/05 13:02:08;;;;;;;16.63;13.63;;;;;;;;;;5097370;28;20440;-74
2022/01/05 13:04:36;;;;;;;18.58;15.88;;;;;;;;;;5100176;28;20094;-72
2022/01/05 13:07:05;;;;;;;18.60;14.07;;;;;;;;;;5113923;27;20070;-75
2022/01/05 13:09:44;;;;;;;15.40;13.43;;;;;;;;;;5084308;28;20382;-74
2022/01/05 13:12:27;;;;;;;17.92;14.73;;;;;;;;;;5083972;28;20063;-74
2022/01/05 13:14:56;;;;;;;14.50;12.38;;;;;;;;;;5102648;28;20079;-75
2022/01/05 13:17:29;;;;;;;18.65;12.43;;;;;;;;;;5083574;28;20048;-75
2022/01/05 13:20:06;;;;;;;14.85;12.35;;;;;;;;;;5099157;28;20478;-75
2022/01/05 13:22:41;;;;;;;14.70;12.32;;;;;;;;;;5095310;27;20498;-75
2022/01/05 13:25:10;;;;;;;14.15;10.55;;;;;;;;;;5119320;27;20051;-75
2022/01/05 13:27:41;;;;;;;11.77;10.52;;;;;;;;;;5137008;27;20051;-76
2022/01/05 13:30:13;;;;;;;13.55;11.60;;;;;;;;;;5136027;27;20047;-70
2022/01/05 13:32:41;;;;;;;12.95;10.18;;;;;;;;;;5092995;28;20104;-71
2022/01/05 13:35:09;;;;;;;11.38;10.15;;;;;;;;;;5094393;28;20097;-74
2022/01/05 13:37:48;;;;;;;12.35;10.40;;;;;;;;;;5115512;27;20130;-75
2022/01/05 13:40:27;;;;;;;11.48;9.85;;;;;;;;;;5080268;28;20559;-75
2022/01/05 13:43:03;;;;;;;10.82;9.73;;;;;;;;;;5078912;28;20043;-73
2022/01/05 13:45:33;;;;;;;11.23;9.30;;;;;;;;;;5098428;27;20043;-75
2022/01/05 13:48:04;;;;;;;10.93;9.75;;;;;;;;;;5124008;27;20088;-75
2022/01/05 13:50:35;;;;;;;11.45;10.25;;;;;;;;;;5094182;28;20065;-77
2022/01/05 13:53:05;;;;;;;11.45;8.90;;;;;;;;;;5092025;28;20134;-75
2022/01/05 13:55:40;;;;;;;10.23;8.50;;;;;;;;;;5080253;28;20082;-76
2022/01/05 13:58:16;;;;;;;8.98;8.07;;;;;;;;;;5095388;27;20146;-77
2022/01/05 14:00:47;;;;;;;7.03;6.32;;;;;;;;;;5107346;27;20058;-78
2022/01/05 14:03:31;;;;;;;8.00;7.25;;;;;;;;;;5112568;27;20047;-74
2022/01/05 14:05:59;;;;;;;7.65;6.82;;;;;;;;;;5109229;27;20043;-75
2022/01/05 14:08:32;;;;;;;7.13;6.18;;;;;;;;;;5094863;27;20054;-80
2022/01/05 14:11:26;;;;;;;6.65;6.05;;;;;;;;;;5114940;27;20096;-76
2022/01/05 14:13:55;;;;;;;5.60;5.00;;;;;;;;;;5101358;27;20096;-76
2022/01/05 14:16:48;;;;;;;7.18;6.50;;;;;;;;;;5100339;28;20040;-77
2022/01/05 14:19:28;;;;;;;5.55;4.65;;;;;;;;;;5111322;27;20051;-77
2022/01/05 14:22:21;;;;;;;5.43;4.93;;;;;;;;;;5119551;27;20055;-76
2022/01/05 14:24:48;;;;;;;6.53;5.93;;;;;;;;;;5109251;27;20455;-77
2022/01/05 14:27:18;;;;;;;5.22;4.63;;;;;;;;;;5122701;27;20100;-77
2022/01/05 14:29:45;;;;;;;5.38;4.82;;;;;;;;;;5100198;27;20035;-77
2022/01/05 14:32:12;;;;;;;6.10;5.43;;;;;;;;;;5114102;27;20051;-77
2022/01/05 14:34:50;;;;;;;6.93;6.05;;;;;;;;;;5132090;27;20043;-76